Latest Weather Observations for Horsley Park

IDN60901

Issued at 8:01 pm EST Tuesday 1 September 2015 (issued every 10 minutes, with the page automatically refreshed every 10 minutes)

About weather observations | Map of Sydney area stations | Latest observations for Sydney area | Other Formats
Station Details ID: 067119 Name: HORSLEY PARK EQUESTRIAN CENTRE AWS Lat: -33.85 Lon: 150.86 Height: 100.0 m
Data from the previous 72 hours. | See also: Recent months at Horsley Park
Date/Time
EST
Tmp

°C
App
Tmp
°C
Dew
Point
°C
Rel
Hum
%
Delta-T

°C
Wind Press
QNH
hPa
Press
MSL
hPa
Rain
since
9 am
mm
Dir
 
Spd
km/h
Gust
km/h
Spd
kts
Gust
kts
01/08:00pm 9.6 7.3 4.6 71 2.2 SSE 6 9 3 5 - - 0.0
01/07:30pm 11.6 8.8 5.3 65 2.9 SE 9 13 5 7 - - 0.0
01/07:00pm 11.6 8.4 5.0 64 3.0 SE 11 13 6 7 - - 0.0
01/06:30pm 12.3 9.4 4.8 60 3.5 SE 9 13 5 7 - - 0.0
01/06:00pm 12.9 9.9 4.3 56 3.9 SE 9 15 5 8 - - 0.0
01/05:30pm 14.1 10.0 4.4 52 4.5 ESE 15 20 8 11 - - 0.0
01/05:00pm 15.2 11.9 4.6 49 5.0 SE 11 19 6 10 - - 0.0
01/04:30pm 17.6 14.4 3.1 38 6.7 SE 9 17 5 9 - - 0.0
01/04:00pm 19.1 16.4 0.2 28 8.4 N 4 7 2 4 - - 0.0
01/03:30pm 19.3 17.1 1.3 30 8.2 E 2 7 1 4 - - 0.0
01/03:00pm 18.9 16.4 1.4 31 7.9 S 4 9 2 5 - - 0.0
01/02:30pm 19.0 16.2 2.0 32 7.8 E 6 9 3 5 - - 0.0
01/02:00pm 18.4 15.7 0.5 30 7.9 N 4 7 2 4 - - 0.0
01/01:30pm 18.2 15.3 1.7 33 7.5 NW 6 9 3 5 - - 0.0
01/01:00pm 17.5 14.6 1.5 34 7.2 SSW 6 13 3 7 - - 0.0
01/12:30pm 16.9 13.5 1.8 36 6.8 WSW 9 15 5 8 - - 0.0
01/12:00pm 16.3 13.6 2.7 40 6.2 WSW 6 13 3 7 - - 0.0
01/11:30am 15.9 13.2 2.7 41 6.0 SW 6 11 3 6 - - 0.0
01/11:00am 15.2 12.9 3.0 44 5.5 W 4 13 2 7 - - 0.0
01/10:30am 14.3 11.1 3.2 47 5.0 WSW 9 15 5 8 - - 0.0
01/10:00am 13.7 10.1 2.9 48 4.8 SW 11 17 6 9 - - 0.0
01/09:30am 13.1 10.2 4.5 56 4.0 WSW 9 19 5 10 - - 0.0
01/09:00am 11.8 9.1 3.6 57 3.7 WSW 7 15 4 8 - - 0.0
01/08:30am 11.2 8.7 3.7 60 3.3 SSW 6 13 3 7 - - 0.0
01/08:00am 10.1 7.6 4.7 69 2.4 WSW 7 11 4 6 - - 0.0
01/07:30am 7.8 6.8 7.2 96 0.3 WSW 2 6 1 3 - - 0.0
01/07:00am 5.1 3.9 4.5 96 0.3 CALM 0 0 0 0 - - 0.0
01/06:30am 4.2 2.8 3.5 95 0.3 CALM 0 0 0 0 - - 0.0
01/06:00am 4.0 2.6 3.3 95 0.3 CALM 0 0 0 0 - - 0.0
01/05:30am 4.2 2.7 3.2 93 0.4 CALM 0 4 0 2 - - 0.0
01/05:00am 4.8 3.4 3.8 93 0.4 CALM 0 0 0 0 - - 0.0
01/04:30am 5.1 3.7 3.4 89 0.7 CALM 0 0 0 0 - - 0.0
01/04:00am 5.7 3.3 4.2 90 0.6 SW 6 7 3 4 - - 0.0
01/03:30am 5.4 4.1 4.1 91 0.6 CALM 0 4 0 2 - - 0.0
01/03:00am 5.8 4.6 4.4 91 0.6 CALM 0 0 0 0 - - 0.0
01/02:30am 6.2 4.9 3.9 85 1.0 CALM 0 0 0 0 - - 0.0
01/02:00am 7.1 5.7 3.7 79 1.5 CALM 0 4 0 2 - - 0.0
01/01:30am 9.1 6.7 4.5 73 2.0 SW 6 7 3 4 - - 0.0
01/01:00am 6.9 4.6 4.7 86 1.0 SW 6 9 3 5 - - 0.0
01/12:30am 9.1 7.1 4.5 73 2.0 SW 4 7 2 4 - - 0.0
01/12:00am 9.9 7.5 5.3 73 2.1 WSW 7 9 4 5 - - 0.0
 
Date/Time
EST
Tmp

°C
App
Tmp
°C
Dew
Point
°C
Rel
Hum
%
Delta-T

°C
Wind Press
QNH
hPa
Press
MSL
hPa
Rain
since
9 am
mm
Dir
 
Spd
km/h
Gust
km/h
Spd
kts
Gust
kts
31/11:30pm 9.2 7.0 6.3 82 1.3 SW 7 9 4 5 - - 0.0
31/11:00pm 9.5 7.6 6.6 82 1.4 WSW 6 9 3 5 - - 0.0
31/10:30pm 9.7 7.7 7.0 83 1.3 SW 7 9 4 5 - - 0.0
31/10:00pm 7.9 6.3 6.2 89 0.8 WSW 4 7 2 4 - - 0.0
31/09:30pm 8.6 7.2 7.1 90 0.7 W 4 7 2 4 - - 0.0
31/09:00pm 8.5 7.3 6.5 87 0.9 NW 2 6 1 3 - - 0.0
31/08:30pm 9.0 8.2 6.4 84 1.2 CALM 0 0 0 0 - - 0.0
31/08:00pm 10.4 9.7 6.9 79 1.7 CALM 0 2 0 1 - - 0.0
31/07:30pm 10.0 8.8 6.3 78 1.7 S 2 4 1 2 - - 0.0
31/07:00pm 11.5 9.9 6.4 71 2.4 SSE 4 6 2 3 - - 0.0
31/06:30pm 12.7 10.6 6.5 66 3.0 SE 7 13 4 7 - - 0.0
31/06:00pm 13.1 10.9 6.0 62 3.4 SE 7 11 4 6 - - 0.0
31/05:30pm 13.8 10.7 5.7 58 3.8 ESE 11 17 6 9 - - 0.0
31/05:00pm 14.3 11.6 5.7 56 4.1 ESE 9 11 5 6 - - 0.0
31/04:30pm 15.4 12.3 5.6 52 4.7 ESE 11 19 6 10 - - 0.0
31/04:00pm 16.1 12.5 5.1 48 5.2 ESE 13 17 7 9 - - 0.0
31/03:30pm 18.2 14.8 2.1 34 7.3 SSW 9 15 5 8 - - 0.0
31/03:00pm 17.9 13.8 2.2 35 7.2 SSW 13 20 7 11 - - 0.0
31/02:30pm 18.6 15.0 2.9 35 7.3 SW 11 19 6 10 - - 0.0
31/02:00pm 18.8 15.3 3.4 36 7.2 SW 11 22 6 12 - - 0.0
31/01:30pm 18.3 14.2 4.1 39 6.8 SSW 15 24 8 13 - - 0.0
31/01:00pm 18.7 15.3 5.9 43 6.3 SW 13 20 7 11 - - 0.0
31/12:30pm 17.6 14.0 4.9 43 6.1 SW 13 20 7 11 - - 0.0
31/12:00pm 17.3 14.1 5.3 45 5.8 SW 11 19 6 10 - - 0.0
31/11:30am 16.8 13.5 4.8 45 5.7 WSW 11 20 6 11 - - 0.0
31/11:00am 16.1 12.8 4.5 46 5.5 W 11 17 6 9 - - 0.0
31/10:30am 15.3 12.8 5.0 50 4.9 W 7 15 4 8 - - 0.0
31/10:00am 14.7 11.3 4.1 49 4.9 SW 11 20 6 11 - - 0.0
31/09:30am 14.1 11.2 4.7 53 4.4 WSW 9 15 5 8 - - 0.0
31/09:00am 13.3 10.1 5.0 57 3.9 SSW 11 20 6 11 - - 0.0
31/08:30am 12.5 9.4 5.4 62 3.3 SSW 11 17 6 9 - - 0.0
31/08:00am 11.2 7.7 5.3 67 2.7 SSW 13 19 7 10 - - 0.0
31/07:30am 10.2 7.0 5.0 70 2.4 SSW 11 17 6 9 - - 0.0
31/07:00am 8.7 6.7 6.2 84 1.2 SW 6 7 3 4 - - 0.0
31/06:30am 6.2 4.3 5.0 92 0.5 SW 4 6 2 3 - - 0.0
31/06:00am 6.5 5.0 5.1 91 0.6 SSW 2 6 1 3 - - 0.0
31/05:30am 6.7 5.7 5.5 92 0.5 CALM 0 2 0 1 - - 0.0
31/05:00am 7.3 5.5 5.6 89 0.8 SSW 4 6 2 3 - - 0.0
31/04:30am 8.0 6.2 5.6 85 1.1 SW 4 6 2 3 - - 0.0
31/04:00am 9.2 8.2 5.8 79 1.6 CALM 0 0 0 0 - - 0.0
31/03:30am 10.3 8.9 5.7 73 2.1 SSW 2 6 1 3 - - 0.0
31/03:00am 10.5 8.7 5.5 71 2.3 SSW 4 9 2 5 - - 0.0
31/02:30am 11.2 9.0 5.5 68 2.6 SSW 6 9 3 5 - - 0.0
31/02:00am 11.6 8.9 5.7 67 2.8 SSW 9 13 5 7 - - 0.0
31/01:30am 11.7 9.0 5.8 67 2.8 SSW 9 15 5 8 - - 0.0
31/01:00am 11.7 9.5 6.0 68 2.7 SW 7 13 4 7 - - 0.0
31/12:30am 11.8 9.2 6.1 68 2.7 SW 9 13 5 7 - - 0.0
31/12:00am 11.6 8.7 6.3 70 2.5 SW 11 17 6 9 - - 0.0
 
Date/Time
EST
Tmp

°C
App
Tmp
°C
Dew
Point
°C
Rel
Hum
%
Delta-T

°C
Wind Press
QNH
hPa
Press
MSL
hPa
Rain
since
9 am
mm
Dir
 
Spd
km/h
Gust
km/h
Spd
kts
Gust
kts
30/11:30pm 11.3 8.8 6.4 72 2.3 SW 9 13 5 7 - - 0.0
30/11:00pm 11.0 8.8 6.4 73 2.2 WSW 7 9 4 5 - - 0.0
30/10:30pm 11.1 8.9 6.3 72 2.3 SW 7 9 4 5 - - 0.0
30/10:00pm 11.2 9.0 6.3 72 2.3 WSW 7 11 4 6 - - 0.0
30/09:30pm 10.6 8.6 6.2 74 2.1 SW 6 7 3 4 - - 0.0
30/09:00pm 10.8 9.9 6.0 72 2.2 CALM 0 2 0 1 - - 0.0
30/08:30pm 11.3 10.0 6.2 71 2.4 W 2 6 1 3 - - 0.0
30/08:00pm 11.3 9.7 6.2 71 2.4 W 4 6 2 3 - - 0.0
30/07:30pm 10.1 7.8 5.9 75 1.9 S 7 9 4 5 - - 0.0
30/07:00pm 9.6 7.3 5.6 76 1.8 SSE 7 7 4 4 - - 0.0
30/06:30pm 12.0 9.8 5.4 64 3.1 SE 6 6 3 3 - - 0.0
30/06:00pm 12.4 9.6 5.3 62 3.3 SE 9 15 5 8 - - 0.0
30/05:30pm 13.0 10.4 5.9 62 3.4 SSE 9 15 5 8 - - 0.0
30/05:00pm 13.9 10.6 6.3 60 3.7 SSE 13 20 7 11 - - 0.0
30/04:30pm 14.8 11.4 6.1 56 4.2 SE 13 17 7 9 - - 0.0
30/04:00pm 15.6 13.5 5.8 52 4.7 SSE 6 7 3 4 - - 0.0
30/03:30pm 16.2 13.9 4.9 47 5.4 SW 6 9 3 5 - - 0.0
30/03:00pm 16.6 14.2 4.3 44 5.8 S 6 9 3 5 - - 0.0
30/02:30pm 16.1 13.7 4.2 45 5.6 S 6 11 3 6 - - 0.0
30/02:00pm 16.5 13.2 4.5 45 5.7 SSW 11 17 6 9 - - 0.0
30/01:30pm 16.8 14.3 3.5 41 6.2 SW 6 11 3 6 - - 0.0
30/01:00pm 17.7 15.0 3.6 39 6.6 SW 7 13 4 7 - - 0.0
30/12:30pm 16.9 14.4 4.9 45 5.7 SW 7 17 4 9 - - 0.0
30/12:00pm 16.4 13.1 4.8 46 5.5 S 11 19 6 10 - - 0.0
30/11:30am 15.8 12.8 3.9 45 5.5 SW 9 20 5 11 - - 0.0
30/11:00am 15.8 12.6 5.1 49 5.1 SSW 11 17 6 9 - - 0.0
30/10:30am 14.7 10.9 4.1 49 4.9 SSW 13 24 7 13 - - 0.0
30/10:00am 14.2 10.1 4.5 52 4.5 SSW 15 24 8 13 - - 0.0
30/09:30am 13.1 9.8 4.3 55 4.0 WSW 11 22 6 12 - - 0.0
30/09:00am 11.4 8.4 4.2 61 3.2 WSW 9 19 5 10 - - 0.0
30/08:30am 10.5 7.7 3.3 61 3.2 WSW 7 13 4 7 - - 0.0
30/08:00am 9.7 6.5 3.0 63 2.9 WSW 9 19 5 10 - - 0.0
30/07:30am 8.6 5.9 2.8 67 2.5 WSW 6 9 3 5 - - 0.0
30/07:00am 7.5 4.8 2.4 70 2.1 WSW 6 9 3 5 - - 0.0
30/06:30am 6.8 3.8 1.9 71 2.0 WSW 7 13 4 7 - - 0.0
30/06:00am 6.6 3.6 1.7 71 2.0 SW 7 13 4 7 - - 0.0
30/05:30am 6.7 3.3 1.8 71 2.0 SW 9 11 5 6 - - 0.0
30/05:00am 6.9 3.5 1.6 69 2.2 SW 9 13 5 7 - - 0.0
30/04:30am 7.5 3.7 1.6 66 2.4 SW 11 15 6 8 - - 0.0
30/04:00am 7.7 3.9 1.8 66 2.4 SW 11 17 6 9 - - 0.0
30/03:30am 7.3 3.5 1.8 68 2.3 SW 11 15 6 8 - - 0.0
30/03:00am 5.3 2.4 1.2 75 1.6 SW 6 9 3 5 - - 0.0
30/02:30am 6.2 3.2 2.3 76 1.6 SW 7 11 4 6 - - 0.0
30/02:00am 6.2 4.4 1.1 70 2.0 CALM 0 2 0 1 - - 0.0
30/01:30am 8.0 5.1 1.6 64 2.6 WSW 6 9 3 5 - - 0.0
30/01:00am 8.6 5.6 1.7 62 2.9 WSW 7 13 4 7 - - 0.0
30/12:30am 9.0 5.6 1.9 61 3.0 WSW 9 17 5 9 - - 0.0
30/12:00am 9.3 5.5 1.7 59 3.2 SW 11 17 6 9 - - 0.0
 
Date/Time
EST
Tmp

°C
App
Tmp
°C
Dew
Point
°C
Rel
Hum
%
Delta-T

°C
Wind Press
QNH
hPa
Press
MSL
hPa
Rain
since
9 am
mm
Dir
 
Spd
km/h
Gust
km/h
Spd
kts
Gust
kts
29/11:30pm 9.5 6.1 1.7 58 3.3 SW 9 13 5 7 - - 0.0
29/11:00pm 10.1 6.6 1.5 55 3.6 SW 9 13 5 7 - - 0.0
29/10:30pm 9.7 6.3 1.6 57 3.4 SW 9 11 5 6 - - 0.0
29/10:00pm 10.0 7.1 1.4 55 3.6 WSW 6 7 3 4 - - 0.0
29/09:30pm 11.3 7.8 1.3 50 4.2 SW 9 13 5 7 - - 0.0
29/09:00pm 11.7 7.5 1.4 49 4.4 SW 13 20 7 11 - - 0.0
29/08:30pm 12.1 8.6 1.4 48 4.6 SW 9 15 5 8 - - 0.0

Latest Capital City Observations: Canberra | Sydney | Melbourne | Brisbane | Adelaide | Perth | Hobart | Darwin

Other Formats:

Comma delimited format used in spreadsheet applications
http://www.bom.gov.au/fwo/IDN60901/IDN60901.94760.axf

JavaScript Object Notation format (JSON) in row-major order
http://www.bom.gov.au/fwo/IDN60901/IDN60901.94760.json